sensor_id;sensor_type;location;lat;lon;timestamp;pressure;altitude;pressure_sealevel;temperature;humidity
75895;BME280;64573;50.328;15.014;2023-06-22T00:02:04;99134.28;;;21.62;83.09
75895;BME280;64573;50.328;15.014;2023-06-22T00:04:30;99138.28;;;21.54;83.22
75895;BME280;64573;50.328;15.014;2023-06-22T00:06:55;99128.69;;;21.52;82.96
75895;BME280;64573;50.328;15.014;2023-06-22T00:09:20;99130.75;;;21.44;83.86
75895;BME280;64573;50.328;15.014;2023-06-22T00:11:46;99127.44;;;21.42;83.82
75895;BME280;64573;50.328;15.014;2023-06-22T00:14:11;99121.09;;;21.37;84.16
75895;BME280;64573;50.328;15.014;2023-06-22T00:16:36;99124.03;;;21.35;84.10
75895;BME280;64573;50.328;15.014;2023-06-22T00:19:02;99121.81;;;21.32;84.08
75895;BME280;64573;50.328;15.014;2023-06-22T00:21:29;99124.66;;;21.26;84.79
75895;BME280;64573;50.328;15.014;2023-06-22T00:23:55;99131.94;;;21.20;85.04
75895;BME280;64573;50.328;15.014;2023-06-22T00:26:20;99139.69;;;21.11;85.50
75895;BME280;64573;50.328;15.014;2023-06-22T00:28:46;99138.88;;;21.11;84.99
75895;BME280;64573;50.328;15.014;2023-06-22T00:31:12;99137.53;;;21.13;85.07
75895;BME280;64573;50.328;15.014;2023-06-22T00:33:37;99146.22;;;21.10;85.25
75895;BME280;64573;50.328;15.014;2023-06-22T00:36:03;99145.88;;;21.07;85.52
75895;BME280;64573;50.328;15.014;2023-06-22T00:38:29;99147.94;;;21.00;85.93
75895;BME280;64573;50.328;15.014;2023-06-22T00:40:54;99148.19;;;20.98;85.70
75895;BME280;64573;50.328;15.014;2023-06-22T00:43:19;99151.56;;;20.88;86.45
75895;BME280;64573;50.328;15.014;2023-06-22T00:45:45;99151.84;;;20.75;87.24
75895;BME280;64573;50.328;15.014;2023-06-22T00:48:11;99155.81;;;20.56;88.61
75895;BME280;64573;50.328;15.014;2023-06-22T00:50:37;99149.34;;;20.45;89.17
75895;BME280;64573;50.328;15.014;2023-06-22T00:53:05;99151.25;;;20.45;89.41
75895;BME280;64573;50.328;15.014;2023-06-22T00:55:35;99154.88;;;20.38;89.07
75895;BME280;64573;50.328;15.014;2023-06-22T00:58:05;99169.00;;;20.47;88.98
75895;BME280;64573;50.328;15.014;2023-06-22T01:00:33;99161.50;;;20.54;88.46
75895;BME280;64573;50.328;15.014;2023-06-22T01:02:59;99162.56;;;20.53;88.48
75895;BME280;64573;50.328;15.014;2023-06-22T01:05:24;99152.25;;;20.55;88.29
75895;BME280;64573;50.328;15.014;2023-06-22T01:13:06;99154.19;;;20.43;88.64
75895;BME280;64573;50.328;15.014;2023-06-22T01:15:37;99159.63;;;20.31;89.58
75895;BME280;64573;50.328;15.014;2023-06-22T01:18:05;99151.47;;;20.20;90.48
75895;BME280;64573;50.328;15.014;2023-06-22T01:20:35;99153.16;;;19.97;91.65
75895;BME280;64573;50.328;15.014;2023-06-22T01:23:11;99149.63;;;19.97;92.36
75895;BME280;64573;50.328;15.014;2023-06-22T01:25:56;99148.66;;;19.91;92.68
75895;BME280;64573;50.328;15.014;2023-06-22T01:28:41;99155.19;;;19.90;92.67
75895;BME280;64573;50.328;15.014;2023-06-22T01:31:09;99142.88;;;19.76;93.23
75895;BME280;64573;50.328;15.014;2023-06-22T01:33:37;99136.16;;;19.67;93.61
75895;BME280;64573;50.328;15.014;2023-06-22T01:36:04;99132.34;;;19.68;93.62
75895;BME280;64573;50.328;15.014;2023-06-22T01:38:31;99132.13;;;19.69;93.69
75895;BME280;64573;50.328;15.014;2023-06-22T01:40:58;99125.38;;;19.60;93.94
75895;BME280;64573;50.328;15.014;2023-06-22T01:43:28;99122.63;;;19.48;94.57
75895;BME280;64573;50.328;15.014;2023-06-22T01:45:55;99132.66;;;19.48;94.42
75895;BME280;64573;50.328;15.014;2023-06-22T01:48:21;99121.78;;;19.48;95.06
75895;BME280;64573;50.328;15.014;2023-06-22T01:50:47;99127.22;;;19.48;94.86
75895;BME280;64573;50.328;15.014;2023-06-22T01:53:13;99132.91;;;19.46;94.78
75895;BME280;64573;50.328;15.014;2023-06-22T01:55:38;99128.88;;;19.37;94.59
75895;BME280;64573;50.328;15.014;2023-06-22T01:58:04;99131.47;;;19.32;95.42
75895;BME280;64573;50.328;15.014;2023-06-22T02:00:32;99123.66;;;19.24;95.67
75895;BME280;64573;50.328;15.014;2023-06-22T02:03:02;99130.63;;;19.20;96.28
75895;BME280;64573;50.328;15.014;2023-06-22T02:05:49;99132.72;;;19.18;96.46
75895;BME280;64573;50.328;15.014;2023-06-22T02:08:28;99131.81;;;19.24;96.15
75895;BME280;64573;50.328;15.014;2023-06-22T02:10:56;99128.75;;;19.20;96.69
75895;BME280;64573;50.328;15.014;2023-06-22T02:13:24;99129.94;;;19.36;96.16
75895;BME280;64573;50.328;15.014;2023-06-22T02:15:50;99125.75;;;19.10;96.60
75895;BME280;64573;50.328;15.014;2023-06-22T02:18:15;99123.03;;;19.10;96.49
75895;BME280;64573;50.328;15.014;2023-06-22T02:20:41;99130.63;;;19.20;96.41
75895;BME280;64573;50.328;15.014;2023-06-22T02:23:06;99129.38;;;19.04;96.48
75895;BME280;64573;50.328;15.014;2023-06-22T02:25:32;99130.59;;;19.08;96.50
75895;BME280;64573;50.328;15.014;2023-06-22T02:27:58;99122.31;;;19.03;96.31
75895;BME280;64573;50.328;15.014;2023-06-22T02:30:23;99130.56;;;18.96;95.49
75895;BME280;64573;50.328;15.014;2023-06-22T02:32:48;99127.66;;;18.61;97.02
75895;BME280;64573;50.328;15.014;2023-06-22T02:35:14;99132.28;;;18.61;97.52
75895;BME280;64573;50.328;15.014;2023-06-22T02:37:39;99131.84;;;18.64;97.20
75895;BME280;64573;50.328;15.014;2023-06-22T02:40:08;99133.81;;;18.57;96.92
75895;BME280;64573;50.328;15.014;2023-06-22T02:42:34;99132.75;;;18.58;97.05
75895;BME280;64573;50.328;15.014;2023-06-22T02:45:00;99134.41;;;18.59;96.66
75895;BME280;64573;50.328;15.014;2023-06-22T02:47:26;99136.69;;;18.43;96.73
75895;BME280;64573;50.328;15.014;2023-06-22T02:49:51;99143.41;;;18.41;96.97
75895;BME280;64573;50.328;15.014;2023-06-22T02:52:16;99147.72;;;18.49;96.87
75895;BME280;64573;50.328;15.014;2023-06-22T02:54:42;99149.78;;;18.46;97.26
75895;BME280;64573;50.328;15.014;2023-06-22T02:59:36;99154.19;;;18.48;97.29
75895;BME280;64573;50.328;15.014;2023-06-22T03:02:06;99149.19;;;18.63;97.17
75895;BME280;64573;50.328;15.014;2023-06-22T03:04:31;99142.16;;;18.73;97.22
75895;BME280;64573;50.328;15.014;2023-06-22T03:06:57;99139.00;;;18.77;97.57
75895;BME280;64573;50.328;15.014;2023-06-22T03:09:26;99140.34;;;18.86;97.05
75895;BME280;64573;50.328;15.014;2023-06-22T03:11:53;99141.91;;;18.93;96.46
75895;BME280;64573;50.328;15.014;2023-06-22T03:14:18;99144.84;;;18.92;96.38
75895;BME280;64573;50.328;15.014;2023-06-22T03:16:43;99147.56;;;18.92;96.57
75895;BME280;64573;50.328;15.014;2023-06-22T03:19:09;99144.78;;;19.10;95.78
75895;BME280;64573;50.328;15.014;2023-06-22T03:21:34;99138.78;;;19.20;95.79
75895;BME280;64573;50.328;15.014;2023-06-22T03:23:59;99133.25;;;19.38;94.52
75895;BME280;64573;50.328;15.014;2023-06-22T03:26:25;99136.22;;;19.37;93.96
75895;BME280;64573;50.328;15.014;2023-06-22T03:28:52;99140.28;;;19.58;93.88
75895;BME280;64573;50.328;15.014;2023-06-22T03:31:17;99151.06;;;19.88;92.65
75895;BME280;64573;50.328;15.014;2023-06-22T03:33:46;99145.72;;;20.04;91.34
75895;BME280;64573;50.328;15.014;2023-06-22T03:36:12;99147.72;;;20.21;89.40
75895;BME280;64573;50.328;15.014;2023-06-22T03:38:37;99148.88;;;20.25;87.68
75895;BME280;64573;50.328;15.014;2023-06-22T03:41:03;99151.72;;;20.30;87.29
75895;BME280;64573;50.328;15.014;2023-06-22T03:43:28;99142.66;;;20.41;88.09
75895;BME280;64573;50.328;15.014;2023-06-22T03:45:53;99150.75;;;20.76;86.53
75895;BME280;64573;50.328;15.014;2023-06-22T03:48:19;99147.19;;;20.87;85.34
75895;BME280;64573;50.328;15.014;2023-06-22T03:50:44;99149.75;;;20.94;85.17
75895;BME280;64573;50.328;15.014;2023-06-22T03:53:10;99160.00;;;20.47;87.44
75895;BME280;64573;50.328;15.014;2023-06-22T03:55:36;99154.16;;;20.83;86.70
75895;BME280;64573;50.328;15.014;2023-06-22T03:58:01;99158.63;;;20.73;86.65
75895;BME280;64573;50.328;15.014;2023-06-22T04:00:30;99158.22;;;20.81;86.35
75895;BME280;64573;50.328;15.014;2023-06-22T04:02:56;99164.25;;;21.11;84.25
75895;BME280;64573;50.328;15.014;2023-06-22T04:05:21;99171.16;;;21.31;83.38
75895;BME280;64573;50.328;15.014;2023-06-22T04:07:46;99169.09;;;21.55;82.36
75895;BME280;64573;50.328;15.014;2023-06-22T04:10:12;99168.69;;;21.46;82.32
75895;BME280;64573;50.328;15.014;2023-06-22T04:12:37;99165.78;;;22.03;80.33
75895;BME280;64573;50.328;15.014;2023-06-22T04:15:03;99158.78;;;22.29;79.19
75895;BME280;64573;50.328;15.014;2023-06-22T04:17:28;99159.75;;;22.62;77.61
75895;BME280;64573;50.328;15.014;2023-06-22T04:19:53;99168.69;;;22.79;75.92
75895;BME280;64573;50.328;15.014;2023-06-22T04:22:19;99174.53;;;22.05;78.63
75895;BME280;64573;50.328;15.014;2023-06-22T04:24:44;99167.03;;;22.34;78.92
75895;BME280;64573;50.328;15.014;2023-06-22T04:29:35;99170.66;;;22.83;76.30
75895;BME280;64573;50.328;15.014;2023-06-22T04:32:00;99163.72;;;22.98;75.52
75895;BME280;64573;50.328;15.014;2023-06-22T04:34:28;99169.75;;;23.27;74.91
75895;BME280;64573;50.328;15.014;2023-06-22T04:36:54;99168.72;;;23.06;75.57
75895;BME280;64573;50.328;15.014;2023-06-22T04:39:20;99172.97;;;23.51;74.28
75895;BME280;64573;50.328;15.014;2023-06-22T04:41:45;99166.47;;;23.57;73.85
75895;BME280;64573;50.328;15.014;2023-06-22T04:44:12;99161.38;;;24.08;72.06
75895;BME280;64573;50.328;15.014;2023-06-22T04:46:38;99156.44;;;23.08;74.29
75895;BME280;64573;50.328;15.014;2023-06-22T04:49:12;99167.47;;;23.78;72.18
75895;BME280;64573;50.328;15.014;2023-06-22T04:51:40;99171.34;;;23.50;72.50
75895;BME280;64573;50.328;15.014;2023-06-22T04:54:06;99172.34;;;23.71;72.79
75895;BME280;64573;50.328;15.014;2023-06-22T04:56:32;99159.81;;;23.80;72.37
75895;BME280;64573;50.328;15.014;2023-06-22T04:58:57;99160.94;;;23.52;73.44
75895;BME280;64573;50.328;15.014;2023-06-22T05:01:23;99154.06;;;23.76;72.85
75895;BME280;64573;50.328;15.014;2023-06-22T05:03:49;99156.31;;;23.89;72.38
75895;BME280;64573;50.328;15.014;2023-06-22T05:06:15;99146.75;;;23.92;72.26
75895;BME280;64573;50.328;15.014;2023-06-22T05:08:40;99145.13;;;23.91;72.13
75895;BME280;64573;50.328;15.014;2023-06-22T05:11:06;99152.94;;;23.13;74.22
75895;BME280;64573;50.328;15.014;2023-06-22T05:13:32;99159.50;;;24.18;70.62
75895;BME280;64573;50.328;15.014;2023-06-22T05:15:58;99163.16;;;24.29;70.19
75895;BME280;64573;50.328;15.014;2023-06-22T05:18:30;99159.78;;;24.12;70.44
75895;BME280;64573;50.328;15.014;2023-06-22T05:20:57;99156.53;;;24.20;69.52
75895;BME280;64573;50.328;15.014;2023-06-22T05:23:23;99168.63;;;24.29;69.95
75895;BME280;64573;50.328;15.014;2023-06-22T05:25:48;99166.47;;;25.04;66.63
75895;BME280;64573;50.328;15.014;2023-06-22T05:28:14;99170.94;;;25.30;65.47
75895;BME280;64573;50.328;15.014;2023-06-22T05:30:39;99172.34;;;25.94;62.68
75895;BME280;64573;50.328;15.014;2023-06-22T05:33:04;99180.31;;;25.80;62.73
75895;BME280;64573;50.328;15.014;2023-06-22T05:35:30;99184.97;;;25.85;62.50
75895;BME280;64573;50.328;15.014;2023-06-22T05:37:56;99184.91;;;26.26;60.52
75895;BME280;64573;50.328;15.014;2023-06-22T05:40:21;99190.66;;;26.39;60.18
75895;BME280;64573;50.328;15.014;2023-06-22T05:42:47;99195.59;;;26.32;60.16
75895;BME280;64573;50.328;15.014;2023-06-22T05:45:12;99195.66;;;26.97;58.59
75895;BME280;64573;50.328;15.014;2023-06-22T05:47:38;99201.03;;;26.58;58.68
75895;BME280;64573;50.328;15.014;2023-06-22T05:50:04;99207.88;;;27.30;56.80
75895;BME280;64573;50.328;15.014;2023-06-22T05:55:02;99224.00;;;26.92;57.43
75895;BME280;64573;50.328;15.014;2023-06-22T05:57:27;99234.34;;;27.65;55.48
75895;BME280;64573;50.328;15.014;2023-06-22T05:59:52;99236.84;;;26.27;58.27
75895;BME280;64573;50.328;15.014;2023-06-22T06:02:19;99235.97;;;27.32;56.96
75895;BME280;64573;50.328;15.014;2023-06-22T06:04:44;99236.47;;;27.79;54.45
75895;BME280;64573;50.328;15.014;2023-06-22T06:07:09;99242.34;;;28.01;53.60
75895;BME280;64573;50.328;15.014;2023-06-22T06:09:35;99253.63;;;28.63;53.00
75895;BME280;64573;50.328;15.014;2023-06-22T06:12:00;99270.53;;;29.04;50.29
75895;BME280;64573;50.328;15.014;2023-06-22T06:14:28;99268.28;;;28.58;51.80
75895;BME280;64573;50.328;15.014;2023-06-22T06:16:53;99259.56;;;28.17;51.53
75895;BME280;64573;50.328;15.014;2023-06-22T06:19:18;99250.88;;;28.05;52.74
75895;BME280;64573;50.328;15.014;2023-06-22T06:21:44;99246.06;;;28.15;52.95
75895;BME280;64573;50.328;15.014;2023-06-22T06:24:09;99226.47;;;28.17;53.25
75895;BME280;64573;50.328;15.014;2023-06-22T06:26:35;99213.72;;;28.26;52.50
75895;BME280;64573;50.328;15.014;2023-06-22T06:29:01;99217.84;;;27.21;55.67
75895;BME280;64573;50.328;15.014;2023-06-22T06:31:27;99226.13;;;27.94;53.41
75895;BME280;64573;50.328;15.014;2023-06-22T06:33:54;99223.81;;;27.38;53.84
75895;BME280;64573;50.328;15.014;2023-06-22T06:36:19;99226.13;;;27.60;54.39
75895;BME280;64573;50.328;15.014;2023-06-22T06:38:45;99225.34;;;27.55;54.99
75895;BME280;64573;50.328;15.014;2023-06-22T06:41:15;99227.66;;;27.37;54.71
75895;BME280;64573;50.328;15.014;2023-06-22T06:43:41;99237.25;;;27.84;53.35
75895;BME280;64573;50.328;15.014;2023-06-22T06:46:08;99231.56;;;28.05;52.79
75895;BME280;64573;50.328;15.014;2023-06-22T06:48:34;99241.63;;;29.39;49.81
75895;BME280;64573;50.328;15.014;2023-06-22T06:50:59;99223.84;;;28.83;50.39
75895;BME280;64573;50.328;15.014;2023-06-22T06:53:24;99229.16;;;29.60;48.34
75895;BME280;64573;50.328;15.014;2023-06-22T06:55:50;99218.56;;;29.30;49.49
75895;BME280;64573;50.328;15.014;2023-06-22T06:58:15;99221.97;;;29.40;49.30
75895;BME280;64573;50.328;15.014;2023-06-22T07:00:41;99215.16;;;28.71;50.98
75895;BME280;64573;50.328;15.014;2023-06-22T07:03:07;99213.72;;;29.59;49.22
75895;BME280;64573;50.328;15.014;2023-06-22T07:05:32;99219.31;;;28.45;52.85
75895;BME280;64573;50.328;15.014;2023-06-22T07:07:57;99210.41;;;28.24;51.75
75895;BME280;64573;50.328;15.014;2023-06-22T07:10:23;99202.69;;;27.68;53.64
75895;BME280;64573;50.328;15.014;2023-06-22T07:12:48;99204.66;;;28.97;50.43
75895;BME280;64573;50.328;15.014;2023-06-22T07:15:14;99198.97;;;28.65;50.65
75895;BME280;64573;50.328;15.014;2023-06-22T07:17:39;99195.38;;;28.64;52.06
75895;BME280;64573;50.328;15.014;2023-06-22T07:20:08;99207.69;;;28.96;49.36
75895;BME280;64573;50.328;15.014;2023-06-22T07:22:36;99199.53;;;28.38;50.13
75895;BME280;64573;50.328;15.014;2023-06-22T07:25:02;99198.31;;;28.49;50.17
75895;BME280;64573;50.328;15.014;2023-06-22T07:27:34;99195.66;;;28.87;49.13
75895;BME280;64573;50.328;15.014;2023-06-22T07:30:02;99199.72;;;28.46;51.34
75895;BME280;64573;50.328;15.014;2023-06-22T07:32:28;99200.78;;;29.17;50.92
75895;BME280;64573;50.328;15.014;2023-06-22T07:34:56;99186.13;;;29.73;47.33
75895;BME280;64573;50.328;15.014;2023-06-22T07:39:46;99194.28;;;29.97;47.01
75895;BME280;64573;50.328;15.014;2023-06-22T07:42:11;99176.56;;;30.86;45.19
75895;BME280;64573;50.328;15.014;2023-06-22T07:44:37;99180.94;;;29.15;47.66
75895;BME280;64573;50.328;15.014;2023-06-22T07:47:02;99171.69;;;28.82;50.33
75895;BME280;64573;50.328;15.014;2023-06-22T07:49:28;99168.19;;;28.76;50.25
75895;BME280;64573;50.328;15.014;2023-06-22T07:51:53;99171.97;;;28.80;50.54
75895;BME280;64573;50.328;15.014;2023-06-22T07:54:18;99173.25;;;28.69;50.83
75895;BME280;64573;50.328;15.014;2023-06-22T07:56:44;99162.50;;;29.81;48.37
75895;BME280;64573;50.328;15.014;2023-06-22T07:59:09;99151.41;;;30.41;45.52
75895;BME280;64573;50.328;15.014;2023-06-22T08:01:34;99147.63;;;30.78;44.72
75895;BME280;64573;50.328;15.014;2023-06-22T08:04:00;99156.97;;;30.68;45.98
75895;BME280;64573;50.328;15.014;2023-06-22T08:06:25;99153.53;;;31.35;44.69
75895;BME280;64573;50.328;15.014;2023-06-22T08:08:50;99145.88;;;31.32;44.14
75895;BME280;64573;50.328;15.014;2023-06-22T08:11:17;99145.59;;;31.42;44.01
75895;BME280;64573;50.328;15.014;2023-06-22T08:13:43;99147.81;;;29.99;47.50
75895;BME280;64573;50.328;15.014;2023-06-22T08:16:08;99123.00;;;30.77;46.40
75895;BME280;64573;50.328;15.014;2023-06-22T08:18:34;99128.13;;;30.01;47.11
75895;BME280;64573;50.328;15.014;2023-06-22T08:20:59;99133.78;;;30.09;46.69
75895;BME280;64573;50.328;15.014;2023-06-22T08:23:24;99136.16;;;30.30;46.76
75895;BME280;64573;50.328;15.014;2023-06-22T08:25:50;99138.41;;;30.69;46.12
75895;BME280;64573;50.328;15.014;2023-06-22T08:28:16;99121.50;;;29.36;47.96
75895;BME280;64573;50.328;15.014;2023-06-22T08:30:41;99123.25;;;29.65;46.47
75895;BME280;64573;50.328;15.014;2023-06-22T08:33:06;99124.59;;;28.97;48.87
75895;BME280;64573;50.328;15.014;2023-06-22T08:35:32;99110.63;;;29.91;48.62
75895;BME280;64573;50.328;15.014;2023-06-22T08:37:57;99107.84;;;30.74;44.13
75895;BME280;64573;50.328;15.014;2023-06-22T08:40:23;99119.16;;;30.23;44.48
75895;BME280;64573;50.328;15.014;2023-06-22T08:42:49;99121.81;;;30.14;45.29
75895;BME280;64573;50.328;15.014;2023-06-22T08:45:15;99118.91;;;30.05;45.78
75895;BME280;64573;50.328;15.014;2023-06-22T08:47:41;99111.94;;;30.77;44.53
75895;BME280;64573;50.328;15.014;2023-06-22T08:50:08;99120.81;;;31.37;42.64
75895;BME280;64573;50.328;15.014;2023-06-22T08:52:34;99113.81;;;31.03;44.16
75895;BME280;64573;50.328;15.014;2023-06-22T08:55:00;99119.34;;;30.12;45.71
75895;BME280;64573;50.328;15.014;2023-06-22T08:57:26;99112.03;;;29.89;47.35
75895;BME280;64573;50.328;15.014;2023-06-22T08:59:51;99102.09;;;31.07;43.72
75895;BME280;64573;50.328;15.014;2023-06-22T09:02:18;99120.81;;;31.82;42.46
75895;BME280;64573;50.328;15.014;2023-06-22T09:04:45;99116.44;;;30.86;43.87
75895;BME280;64573;50.328;15.014;2023-06-22T09:09:39;99113.69;;;30.04;45.27
75895;BME280;64573;50.328;15.014;2023-06-22T09:12:04;99103.38;;;30.51;44.09
75895;BME280;64573;50.328;15.014;2023-06-22T09:14:30;99114.75;;;31.80;42.22
75895;BME280;64573;50.328;15.014;2023-06-22T09:16:55;99099.66;;;31.05;41.16
75895;BME280;64573;50.328;15.014;2023-06-22T09:19:21;99108.25;;;31.17;42.67
75895;BME280;64573;50.328;15.014;2023-06-22T09:21:46;99105.47;;;31.17;40.36
75895;BME280;64573;50.328;15.014;2023-06-22T09:24:11;99097.84;;;31.68;40.36
75895;BME280;64573;50.328;15.014;2023-06-22T09:26:37;99097.91;;;30.73;44.25
75895;BME280;64573;50.328;15.014;2023-06-22T09:29:05;99101.19;;;30.47;43.89
75895;BME280;64573;50.328;15.014;2023-06-22T09:31:31;99101.88;;;31.62;40.96
75895;BME280;64573;50.328;15.014;2023-06-22T09:33:56;99096.66;;;31.82;41.36
75895;BME280;64573;50.328;15.014;2023-06-22T09:36:21;99093.91;;;32.31;40.09
75895;BME280;64573;50.328;15.014;2023-06-22T09:38:48;99089.59;;;33.60;36.41
75895;BME280;64573;50.328;15.014;2023-06-22T09:41:13;99090.44;;;33.52;36.62
75895;BME280;64573;50.328;15.014;2023-06-22T09:43:39;99100.97;;;34.01;35.71
75895;BME280;64573;50.328;15.014;2023-06-22T09:46:04;99093.09;;;34.71;34.63
75895;BME280;64573;50.328;15.014;2023-06-22T09:48:29;99094.78;;;34.25;36.07
75895;BME280;64573;50.328;15.014;2023-06-22T09:50:56;99083.63;;;34.93;34.81
75895;BME280;64573;50.328;15.014;2023-06-22T09:53:21;99095.03;;;35.21;35.50
75895;BME280;64573;50.328;15.014;2023-06-22T09:55:47;99097.91;;;34.24;35.50
75895;BME280;64573;50.328;15.014;2023-06-22T09:58:12;99085.69;;;32.65;37.39
75895;BME280;64573;50.328;15.014;2023-06-22T10:00:38;99081.47;;;32.94;39.06
75895;BME280;64573;50.328;15.014;2023-06-22T10:03:03;99085.47;;;33.92;36.56
75895;BME280;64573;50.328;15.014;2023-06-22T10:05:28;99061.38;;;34.25;34.83
75895;BME280;64573;50.328;15.014;2023-06-22T10:07:53;99076.50;;;33.78;36.94
75895;BME280;64573;50.328;15.014;2023-06-22T10:10:19;99063.28;;;33.57;36.10
75895;BME280;64573;50.328;15.014;2023-06-22T10:12:55;99063.53;;;31.55;39.31
75895;BME280;64573;50.328;15.014;2023-06-22T10:15:21;99074.41;;;31.74;39.67
75895;BME280;64573;50.328;15.014;2023-06-22T10:17:47;99067.09;;;32.92;38.40
75895;BME280;64573;50.328;15.014;2023-06-22T10:20:12;99072.63;;;33.61;35.91
75895;BME280;64573;50.328;15.014;2023-06-22T10:22:42;99075.88;;;32.59;38.20
75895;BME280;64573;50.328;15.014;2023-06-22T10:25:10;99066.91;;;33.32;36.70
75895;BME280;64573;50.328;15.014;2023-06-22T10:27:36;99073.94;;;33.55;35.70
75895;BME280;64573;50.328;15.014;2023-06-22T10:30:02;99070.59;;;34.55;34.44
75895;BME280;64573;50.328;15.014;2023-06-22T10:32:27;99060.41;;;35.55;32.76
75895;BME280;64573;50.328;15.014;2023-06-22T10:34:54;99059.50;;;35.30;32.82
75895;BME280;64573;50.328;15.014;2023-06-22T10:37:19;99056.69;;;36.09;31.34
75895;BME280;64573;50.328;15.014;2023-06-22T10:39:44;99052.47;;;34.70;33.77
75895;BME280;64573;50.328;15.014;2023-06-22T10:42:10;99048.09;;;35.23;33.40
75895;BME280;64573;50.328;15.014;2023-06-22T10:44:35;99048.53;;;36.04;31.79
75895;BME280;64573;50.328;15.014;2023-06-22T10:47:00;99054.50;;;35.57;30.90
75895;BME280;64573;50.328;15.014;2023-06-22T10:49:26;99048.47;;;33.91;34.92
75895;BME280;64573;50.328;15.014;2023-06-22T10:51:51;99050.97;;;33.67;35.59
75895;BME280;64573;50.328;15.014;2023-06-22T10:54:16;99050.78;;;34.99;33.38
75895;BME280;64573;50.328;15.014;2023-06-22T10:56:44;99051.97;;;35.88;30.91
75895;BME280;64573;50.328;15.014;2023-06-22T10:59:09;99050.78;;;34.99;32.07
75895;BME280;64573;50.328;15.014;2023-06-22T11:01:35;99053.53;;;32.82;35.77
75895;BME280;64573;50.328;15.014;2023-06-22T11:04:00;99042.41;;;32.07;37.03
75895;BME280;64573;50.328;15.014;2023-06-22T11:06:25;99043.72;;;32.67;35.97
75895;BME280;64573;50.328;15.014;2023-06-22T11:08:51;99046.50;;;32.67;37.44
75895;BME280;64573;50.328;15.014;2023-06-22T11:11:16;99028.16;;;35.13;30.88
75895;BME280;64573;50.328;15.014;2023-06-22T11:13:43;99030.38;;;35.85;29.10
75895;BME280;64573;50.328;15.014;2023-06-22T11:16:09;99045.31;;;36.79;28.05
75895;BME280;64573;50.328;15.014;2023-06-22T11:18:34;99035.81;;;37.51;27.18
75895;BME280;64573;50.328;15.014;2023-06-22T11:21:00;99040.22;;;37.96;27.40
75895;BME280;64573;50.328;15.014;2023-06-22T11:23:25;99034.94;;;37.19;27.97
75895;BME280;64573;50.328;15.014;2023-06-22T11:25:52;99031.06;;;34.33;31.28
75895;BME280;64573;50.328;15.014;2023-06-22T11:28:17;99032.16;;;34.91;31.61
75895;BME280;64573;50.328;15.014;2023-06-22T11:30:43;99031.44;;;36.05;29.27
75895;BME280;64573;50.328;15.014;2023-06-22T11:33:08;99029.03;;;35.13;30.03
75895;BME280;64573;50.328;15.014;2023-06-22T11:35:33;99027.13;;;34.04;33.06
75895;BME280;64573;50.328;15.014;2023-06-22T11:37:59;99026.13;;;33.70;33.07
75895;BME280;64573;50.328;15.014;2023-06-22T11:40:24;99020.38;;;33.76;33.57
75895;BME280;64573;50.328;15.014;2023-06-22T11:42:50;99020.81;;;33.86;33.60
75895;BME280;64573;50.328;15.014;2023-06-22T11:45:15;99006.81;;;34.33;32.09
75895;BME280;64573;50.328;15.014;2023-06-22T11:47:42;99002.91;;;34.76;31.10
75895;BME280;64573;50.328;15.014;2023-06-22T11:50:08;99000.09;;;36.49;29.21
75895;BME280;64573;50.328;15.014;2023-06-22T11:52:34;99005.16;;;35.03;30.88
75895;BME280;64573;50.328;15.014;2023-06-22T11:55:01;98995.94;;;33.43;34.52
75895;BME280;64573;50.328;15.014;2023-06-22T11:57:29;99006.22;;;33.98;33.10
75895;BME280;64573;50.328;15.014;2023-06-22T11:59:54;99000.69;;;33.42;34.63
75895;BME280;64573;50.328;15.014;2023-06-22T12:02:19;98981.16;;;34.90;32.06
75895;BME280;64573;50.328;15.014;2023-06-22T12:04:45;98988.88;;;34.93;32.37
75895;BME280;64573;50.328;15.014;2023-06-22T12:09:39;98974.84;;;34.81;31.64
75895;BME280;64573;50.328;15.014;2023-06-22T12:12:05;98980.09;;;34.62;32.58
75895;BME280;64573;50.328;15.014;2023-06-22T12:14:30;98978.47;;;35.60;30.11
75895;BME280;64573;50.328;15.014;2023-06-22T12:16:58;98981.16;;;35.44;30.39
75895;BME280;64573;50.328;15.014;2023-06-22T12:19:23;98978.03;;;36.07;29.16
75895;BME280;64573;50.328;15.014;2023-06-22T12:21:48;98975.25;;;35.25;29.81
75895;BME280;64573;50.328;15.014;2023-06-22T12:24:14;98967.44;;;35.63;29.51
75895;BME280;64573;50.328;15.014;2023-06-22T12:26:39;98982.56;;;36.11;29.36
75895;BME280;64573;50.328;15.014;2023-06-22T12:29:04;98968.19;;;35.40;30.19
75895;BME280;64573;50.328;15.014;2023-06-22T12:31:30;98959.69;;;33.39;34.09
75895;BME280;64573;50.328;15.014;2023-06-22T12:33:55;98949.53;;;35.77;30.61
75895;BME280;64573;50.328;15.014;2023-06-22T12:36:20;98957.56;;;35.54;31.02
75895;BME280;64573;50.328;15.014;2023-06-22T12:38:46;98963.56;;;36.41;29.99
75895;BME280;64573;50.328;15.014;2023-06-22T12:41:11;98965.50;;;36.01;30.19
75895;BME280;64573;50.328;15.014;2023-06-22T12:43:36;98960.47;;;35.12;31.56
75895;BME280;64573;50.328;15.014;2023-06-22T12:46:02;98968.84;;;35.57;31.21
75895;BME280;64573;50.328;15.014;2023-06-22T12:48:27;98960.94;;;34.60;32.76
75895;BME280;64573;50.328;15.014;2023-06-22T12:50:53;98949.16;;;33.45;34.69
75895;BME280;64573;50.328;15.014;2023-06-22T12:53:18;98951.78;;;33.80;34.33
75895;BME280;64573;50.328;15.014;2023-06-22T12:55:43;98964.59;;;34.73;32.46
75895;BME280;64573;50.328;15.014;2023-06-22T12:58:09;98946.06;;;36.04;29.96
75895;BME280;64573;50.328;15.014;2023-06-22T13:00:34;98952.06;;;34.46;32.54
75895;BME280;64573;50.328;15.014;2023-06-22T13:03:00;98950.47;;;33.47;34.97
75895;BME280;64573;50.328;15.014;2023-06-22T13:05:25;98935.25;;;33.54;35.25